createdAt,value
2023-01-13T04:51:32.327Z,13.32
2023-01-13T04:53:36.825Z,13.98
2023-01-13T04:55:39.750Z,12.40
2023-01-13T04:57:42.569Z,10.20
2023-01-13T04:59:45.112Z,10.73
2023-01-13T05:01:47.999Z,9.98
2023-01-13T05:03:50.485Z,9.40
2023-01-13T05:05:53.175Z,8.40
2023-01-13T05:07:56.438Z,9.05
2023-01-13T05:09:59.394Z,8.77
2023-01-13T05:12:20.676Z,8.15
2023-01-13T05:14:41.815Z,8.38
2023-01-13T05:17:02.877Z,7.55
2023-01-13T05:19:05.356Z,7.32
2023-01-13T05:21:27.665Z,7.20
2023-01-13T05:23:49.322Z,6.95
2023-01-13T05:25:52.164Z,6.60
2023-01-13T05:27:58.092Z,6.35
2023-01-13T05:30:07.579Z,5.85
2023-01-13T05:32:11.247Z,5.65
2023-01-13T05:34:14.937Z,5.70
2023-01-13T05:36:21.809Z,5.82
2023-01-13T05:38:24.517Z,5.22
2023-01-13T05:40:45.676Z,5.15
2023-01-13T05:43:21.324Z,4.78
2023-01-13T05:45:24.677Z,5.72
2023-01-13T05:47:27.407Z,5.97
2023-01-13T05:49:29.882Z,5.78
2023-01-13T05:51:32.609Z,5.95
2023-01-13T05:53:35.566Z,6.10
2023-01-13T05:55:43.239Z,5.70
2023-01-13T05:57:46.032Z,5.88
2023-01-13T05:59:50.967Z,5.97
2023-01-13T06:01:53.670Z,6.22
2023-01-13T06:03:58.975Z,5.82
2023-01-13T06:06:06.617Z,6.05
2023-01-13T06:08:10.575Z,6.68
2023-01-13T06:10:13.939Z,6.40
2023-01-13T06:12:20.549Z,6.53
2023-01-13T06:14:48.436Z,5.45
2023-01-13T06:16:53.246Z,5.85
2023-01-13T06:18:58.438Z,5.40
2023-01-13T06:21:07.367Z,5.57
2023-01-13T06:23:11.995Z,5.35
2023-01-13T06:25:42.217Z,5.53
2023-01-13T06:27:45.330Z,5.22
2023-01-13T06:29:52.059Z,5.63
2023-01-13T06:31:56.394Z,6.13
2023-01-13T06:34:10.074Z,5.72
2023-01-13T06:36:23.209Z,6.07
2023-01-13T06:38:34.418Z,6.72
2023-01-13T06:40:38.968Z,5.20
2023-01-13T06:43:18.143Z,5.63
2023-01-13T06:45:22.692Z,5.35
2023-01-13T06:47:26.060Z,5.65
2023-01-13T06:49:45.762Z,5.75
2023-01-13T06:51:51.260Z,5.60
2023-01-13T06:53:53.796Z,5.60
2023-01-13T06:55:56.237Z,5.60
2023-01-13T06:57:59.179Z,6.38
2023-01-13T07:00:02.606Z,5.93
2023-01-13T07:02:05.272Z,6.53
2023-01-13T07:04:07.788Z,7.13
2023-01-13T07:06:10.196Z,7.18
2023-01-13T07:08:12.757Z,7.07
2023-01-13T07:10:22.637Z,7.20
2023-01-13T07:12:25.014Z,6.88
2023-01-13T07:14:48.639Z,7.22
2023-01-13T07:16:53.535Z,6.53
2023-01-13T07:18:56.334Z,7.15
2023-01-13T07:21:10.189Z,6.35
2023-01-13T07:23:16.035Z,7.47
2023-01-13T07:25:18.581Z,7.35
2023-01-13T07:27:21.217Z,7.07
2023-01-13T07:29:24.177Z,7.70
2023-01-13T07:31:29.389Z,8.07
2023-01-13T07:33:34.989Z,7.80
2023-01-13T07:35:38.597Z,7.40
2023-01-13T07:37:42.515Z,7.47
2023-01-13T07:39:46.098Z,7.93
2023-01-13T07:42:06.899Z,8.57
2023-01-13T07:44:11.479Z,8.40
2023-01-13T07:46:14.055Z,8.15
2023-01-13T07:48:16.787Z,8.23
2023-01-13T07:50:19.827Z,7.68
2023-01-13T07:52:22.476Z,7.72
2023-01-13T07:54:35.185Z,7.75
2023-01-13T07:56:42.565Z,8.43
2023-01-13T07:58:50.827Z,8.18
2023-01-13T08:01:26.680Z,7.57
2023-01-13T08:03:41.919Z,8.82
2023-01-13T08:05:48.035Z,7.53
2023-01-13T08:07:54.347Z,7.60
2023-01-13T08:09:56.776Z,7.35
2023-01-13T08:12:18.260Z,7.57
2023-01-13T08:14:31.107Z,7.25
2023-01-13T08:16:35.446Z,7.15
2023-01-13T08:18:39.273Z,8.15
2023-01-13T08:20:42.488Z,7.45
2023-01-13T08:22:45.267Z,7.20
2023-01-13T08:24:48.980Z,7.18
2023-01-13T08:26:51.433Z,6.80
2023-01-13T08:28:54.136Z,6.85
2023-01-13T08:31:01.026Z,7.15
2023-01-13T08:33:08.285Z,6.40
2023-01-13T08:35:11.993Z,6.80
2023-01-13T08:37:14.587Z,7.40
2023-01-13T08:39:17.166Z,7.20
2023-01-13T08:41:39.604Z,7.97
2023-01-13T08:43:42.636Z,8.45
2023-01-13T08:46:05.235Z,7.95
2023-01-13T08:48:10.304Z,7.90
2023-01-13T08:50:13.213Z,7.78
2023-01-13T08:52:16.366Z,8.93
2023-01-13T08:54:19.555Z,7.43
2023-01-13T08:56:22.106Z,8.07
2023-01-13T08:58:24.766Z,7.45
2023-01-13T09:00:27.589Z,7.50
2023-01-13T09:02:30.187Z,6.97
2023-01-13T09:04:32.870Z,7.00
2023-01-13T09:06:35.455Z,6.95
2023-01-13T09:08:38.685Z,7.65
2023-01-13T09:10:41.370Z,8.25
2023-01-13T09:13:04.389Z,7.15
2023-01-13T09:15:09.031Z,7.20
2023-01-13T09:17:12.236Z,7.18
2023-01-13T09:19:15.483Z,7.95
2023-01-13T09:21:20.238Z,8.13
2023-01-13T09:23:22.736Z,7.20
2023-01-13T09:25:25.275Z,7.38
2023-01-13T09:27:27.728Z,8.18
2023-01-13T09:29:30.317Z,7.25
2023-01-13T09:31:34.819Z,6.68
2023-01-13T09:34:02.937Z,6.80
2023-01-13T09:36:05.966Z,7.07
2023-01-13T09:38:08.646Z,9.32
2023-01-13T09:40:19.552Z,6.07
2023-01-13T09:42:50.207Z,7.38
2023-01-13T09:47:56.891Z,6.18
2023-01-13T09:50:18.221Z,6.38
2023-01-13T09:52:26.717Z,5.78
2023-01-13T09:54:32.882Z,4.93
2023-01-13T09:56:35.567Z,5.05
2023-01-13T09:58:38.282Z,5.30
2023-01-13T10:00:56.545Z,5.78
2023-01-13T10:03:14.416Z,5.57
2023-01-13T10:05:35.022Z,5.90
2023-01-13T10:07:41.641Z,5.18
2023-01-13T10:09:46.939Z,7.10
2023-01-13T10:12:10.169Z,6.57
2023-01-13T10:14:38.171Z,6.22
2023-01-13T10:17:43.300Z,7.13
2023-01-13T10:19:55.820Z,6.30
2023-01-13T10:22:24.171Z,6.05
2023-01-13T10:24:32.472Z,5.70
2023-01-13T10:26:43.319Z,6.38
2023-01-13T10:28:55.921Z,7.45
2023-01-13T10:30:59.018Z,6.95
2023-01-13T10:33:12.769Z,6.38
2023-01-13T10:35:18.695Z,7.15
2023-01-13T10:37:24.510Z,5.72
2023-01-13T10:39:39.460Z,5.82
2023-01-13T10:41:41.993Z,5.28
2023-01-13T10:44:07.717Z,5.72
2023-01-13T10:46:16.504Z,5.28
2023-01-13T10:48:19.163Z,4.90
2023-01-13T10:50:29.302Z,4.93
2023-01-13T10:52:33.881Z,5.55
2023-01-13T10:54:38.116Z,5.13
2023-01-13T10:56:43.499Z,5.18
2023-01-13T10:58:46.221Z,5.40
2023-01-13T11:02:36.313Z,5.07
2023-01-13T11:04:41.768Z,4.95
2023-01-13T11:06:47.701Z,5.13
2023-01-13T11:08:52.216Z,4.22
2023-01-13T11:10:57.411Z,4.45
2023-01-13T11:13:27.742Z,4.40
2023-01-13T11:15:45.316Z,4.22
2023-01-13T11:18:05.618Z,4.20
2023-01-13T11:20:32.860Z,4.20
2023-01-13T11:22:47.035Z,4.40
2023-01-13T11:24:54.871Z,4.28
2023-01-13T11:27:06.113Z,4.22
2023-01-13T11:29:29.311Z,4.95
2023-01-13T11:31:44.585Z,4.55
2023-01-13T11:34:01.743Z,4.07
2023-01-13T11:36:22.434Z,5.15
2023-01-13T11:38:49.581Z,4.88
2023-01-13T11:40:52.991Z,4.18
2023-01-13T11:43:18.676Z,4.72
2023-01-13T11:46:00.630Z,4.50
2023-01-13T11:48:04.419Z,4.00
2023-01-13T11:50:18.090Z,3.72
2023-01-13T11:52:28.716Z,4.20
2023-01-13T11:55:16.263Z,4.47
2023-01-13T11:57:41.470Z,3.95
2023-01-13T12:00:28.383Z,4.53
2023-01-13T12:02:49.671Z,3.90
2023-01-13T12:05:12.310Z,3.67
2023-01-13T12:09:26.819Z,4.13
2023-01-13T12:11:33.459Z,4.97
2023-01-13T12:14:02.543Z,4.63
2023-01-13T12:16:12.591Z,4.80
2023-01-13T12:18:38.736Z,4.80
2023-01-13T12:21:05.429Z,4.60
2023-01-13T12:23:31.343Z,4.45
2023-01-13T12:25:48.404Z,5.75
2023-01-13T12:28:14.196Z,5.32
2023-01-13T12:30:45.196Z,4.63
2023-01-13T12:32:49.089Z,4.03
2023-01-13T12:35:23.880Z,4.07
2023-01-13T12:37:55.824Z,4.60
2023-01-13T12:40:26.505Z,4.40
2023-01-13T12:43:11.853Z,5.40
2023-01-13T12:45:18.660Z,4.63
2023-01-13T12:47:52.023Z,5.30
2023-01-13T12:50:32.202Z,4.88
2023-01-13T12:52:46.060Z,5.03
2023-01-13T12:54:49.503Z,4.60
2023-01-13T12:57:02.255Z,5.35
2023-01-13T12:59:19.335Z,5.15
2023-01-13T13:01:37.223Z,5.68
2023-01-13T13:31:13.493Z,6.72
2023-01-13T13:33:50.694Z,6.72
2023-01-13T13:36:17.071Z,6.75
2023-01-13T13:38:43.132Z,7.57
2023-01-13T13:41:08.338Z,7.97
2023-01-13T13:43:35.541Z,7.10
2023-01-13T13:46:10.870Z,7.50
2023-01-13T13:48:28.439Z,7.82
2023-01-13T13:50:37.269Z,7.85
2023-01-13T13:53:15.498Z,7.47
2023-01-13T13:55:21.459Z,7.30
2023-01-13T13:57:39.958Z,9.30
2023-01-13T13:59:42.818Z,8.68
2023-01-13T14:01:51.634Z,8.50
2023-01-13T14:04:21.645Z,7.82
2023-01-13T14:06:24.933Z,8.20
2023-01-13T14:08:30.843Z,8.75
2023-01-13T14:10:36.124Z,8.88
2023-01-13T14:12:39.280Z,8.25
2023-01-13T14:14:47.611Z,8.95
2023-01-13T14:16:52.139Z,7.18
2023-01-13T14:18:57.159Z,6.20
2023-01-13T14:21:05.380Z,5.65
2023-01-13T14:23:14.548Z,5.60
2023-01-13T14:25:39.636Z,5.63
2023-01-13T14:27:43.867Z,5.93
2023-01-13T14:29:46.695Z,5.38
2023-01-13T14:31:51.540Z,6.20
2023-01-13T14:33:59.667Z,6.03
2023-01-13T14:36:19.015Z,5.60
2023-01-13T14:38:21.898Z,6.30
2023-01-13T14:40:36.347Z,6.00
2023-01-13T14:42:38.740Z,6.80
2023-01-13T14:44:47.483Z,6.53
2023-01-13T14:46:49.994Z,7.00
2023-01-13T14:49:36.505Z,6.55
2023-01-13T14:51:38.749Z,7.55
2023-01-13T14:55:50.548Z,5.85
2023-01-13T14:57:53.203Z,7.00
2023-01-13T15:00:23.998Z,6.55
2023-01-13T15:02:34.708Z,5.78
2023-01-13T15:04:42.269Z,6.50
2023-01-13T15:06:51.533Z,6.20
2023-01-13T15:08:54.105Z,5.00
2023-01-13T15:11:00.233Z,5.30
2023-01-13T15:13:06.152Z,5.32
2023-01-13T15:15:22.977Z,4.93
2023-01-13T15:17:25.291Z,5.53
2023-01-13T15:19:27.982Z,6.07
2023-01-13T15:21:30.874Z,5.13
2023-01-13T15:23:33.420Z,4.43
2023-01-13T15:25:39.011Z,4.38
2023-01-13T15:27:43.553Z,4.70
2023-01-13T15:29:46.713Z,6.05
2023-01-13T15:31:48.878Z,5.07
2023-01-13T15:35:54.465Z,5.50
2023-01-13T15:37:58.108Z,5.70
2023-01-13T15:40:01.510Z,5.30
2023-01-13T15:42:22.837Z,5.50
2023-01-13T15:44:59.734Z,5.80
2023-01-13T15:47:17.707Z,6.03
2023-01-13T15:49:59.224Z,5.88
2023-01-13T15:52:25.085Z,6.03
2023-01-13T16:10:21.693Z,7.05
2023-01-13T16:12:33.412Z,8.38
2023-01-13T16:14:50.117Z,6.65
2023-01-13T16:16:52.615Z,8.50
2023-01-13T16:18:55.622Z,8.27
2023-01-13T16:21:06.434Z,8.82
2023-01-13T16:23:09.598Z,8.80
2023-01-13T16:25:29.405Z,8.93
2023-01-13T16:27:34.392Z,9.70
2023-01-13T16:29:44.039Z,8.30
2023-01-13T16:31:48.644Z,7.97
2023-01-13T16:33:59.396Z,8.32
2023-01-13T16:36:12.603Z,6.72
2023-01-13T16:38:21.986Z,6.57
2023-01-13T16:40:37.763Z,7.55
2023-01-13T16:42:39.974Z,8.23
2023-01-13T16:46:58.207Z,6.18
2023-01-13T16:49:04.367Z,6.45
2023-01-13T16:51:06.737Z,5.70
2023-01-13T16:53:10.464Z,6.05
2023-01-13T16:55:12.733Z,4.75
2023-01-13T17:01:32.853Z,5.80
2023-01-13T17:03:36.724Z,6.15
2023-01-13T17:05:45.609Z,5.43
2023-01-13T17:07:49.154Z,5.80
2023-01-13T17:09:54.356Z,5.30
2023-01-13T17:12:03.428Z,6.20
2023-01-13T17:14:18.777Z,5.38
2023-01-13T17:16:25.218Z,5.72
2023-01-13T17:18:31.355Z,6.57
2023-01-13T17:20:43.788Z,6.78
2023-01-13T17:22:57.996Z,6.90
2023-01-13T17:25:04.679Z,6.53
2023-01-13T17:27:07.690Z,6.10
2023-01-13T17:29:14.629Z,6.50
2023-01-13T17:31:16.979Z,6.20
2023-01-13T17:33:19.650Z,6.90
2023-01-13T17:35:25.387Z,6.38
2023-01-13T17:37:28.060Z,7.30
2023-01-13T17:39:31.063Z,6.57
2023-01-13T17:41:33.844Z,6.30
2023-01-13T17:44:03.345Z,6.93
2023-01-13T17:46:14.568Z,6.72
2023-01-13T17:48:16.948Z,5.88
2023-01-13T19:14:42.602Z,6.45
2023-01-13T19:16:44.972Z,7.57
2023-01-13T19:18:50.105Z,7.72
2023-01-13T19:20:53.067Z,8.27
2023-01-13T19:22:57.585Z,6.38
2023-01-13T19:25:00.875Z,6.03
2023-01-13T19:27:04.877Z,6.55
2023-01-13T19:29:10.448Z,6.88
2023-01-13T19:31:13.255Z,6.70
2023-01-13T19:33:15.654Z,5.95
2023-01-13T19:35:19.047Z,5.43
2023-01-13T19:37:22.608Z,6.95
2023-01-13T19:39:26.309Z,7.13
2023-01-13T19:41:49.086Z,6.63
2023-01-13T19:46:21.991Z,7.38
2023-01-13T19:48:26.672Z,6.10
2023-01-13T19:50:28.987Z,5.97
2023-01-13T19:52:31.977Z,5.75
2023-01-13T19:54:34.385Z,6.30
2023-01-13T19:56:39.361Z,6.05
2023-01-13T19:58:44.070Z,5.97
2023-01-13T20:00:49.513Z,5.80
2023-01-13T20:02:57.829Z,7.05
2023-01-13T20:05:03.692Z,6.25
2023-01-13T20:07:07.587Z,7.15
2023-01-13T20:09:09.961Z,6.00
2023-01-13T20:11:28.042Z,5.95
2023-01-13T20:13:33.033Z,5.95
2023-01-13T20:15:36.103Z,5.97
2023-01-13T20:17:38.605Z,6.40
2023-01-13T20:19:41.646Z,6.60
2023-01-13T20:21:44.683Z,7.57
2023-01-13T20:23:53.523Z,6.35
2023-01-13T20:25:56.013Z,7.22
2023-01-13T20:28:02.589Z,7.38
2023-01-13T20:30:09.995Z,8.88
2023-01-13T20:32:22.060Z,9.75
2023-01-13T20:34:28.203Z,9.63
2023-01-13T20:36:34.112Z,9.55
2023-01-13T20:38:39.772Z,9.57
2023-01-13T20:40:42.661Z,9.48
2023-01-13T20:42:45.692Z,9.18
2023-01-13T20:44:48.291Z,10.40
2023-01-13T20:46:51.774Z,10.25
2023-01-13T20:48:55.985Z,10.68
2023-01-13T20:51:00.561Z,9.40
2023-01-13T20:53:04.123Z,9.70
2023-01-13T20:55:08.233Z,9.43
2023-01-13T20:57:11.867Z,10.40
2023-01-13T20:59:14.328Z,9.85
2023-01-13T21:01:16.846Z,9.95
2023-01-13T21:03:20.737Z,11.50
2023-01-13T21:05:22.846Z,9.52
2023-01-13T21:09:27.611Z,9.00
2023-01-13T21:11:48.669Z,9.43
2023-01-13T21:14:09.417Z,8.77
2023-01-13T21:16:11.925Z,8.52
2023-01-13T21:18:32.779Z,8.23
2023-01-13T21:20:36.927Z,6.53
2023-01-13T21:22:39.503Z,6.25
2023-01-13T21:24:41.659Z,5.45
2023-01-13T21:28:49.740Z,6.28
2023-01-13T21:30:52.969Z,5.65
2023-01-13T21:32:55.533Z,5.68
2023-01-13T21:34:59.165Z,5.95
2023-01-13T21:37:01.890Z,6.63
2023-01-13T21:39:04.163Z,6.72
2023-01-13T21:41:08.860Z,6.25
2023-01-13T21:43:31.427Z,7.30
2023-01-13T21:47:56.945Z,8.63
